Time;durP1;ratioP1;P1;durP2;ratioP2;P2;SDS_P1;SDS_P2;PMS_P1;PMS_P2;Temp;Humidity;BMP_temperature;BMP_pressure;BME280_temperature;BME280_humidity;BME280_pressure;Samples;Min_cycle;Max_cycle;Signal;HPM_P1;HPM_P2
2022/09/04 00:00:09;;;;;;;20.50;11.20;;;;;;;8.46;71.02;101098.39;89033;1264;81326;-60
2022/09/04 00:03:00;;;;;;;21.90;11.50;;;;;;;8.44;70.93;101098.92;88974;1264;81257;-59
2022/09/04 00:05:20;;;;;;;23.10;12.30;;;;;;;8.46;70.98;101099.06;88956;1264;97762;-58
2022/09/04 00:07:37;;;;;;;22.70;11.00;;;;;;;8.46;70.92;101101.55;88978;1265;88505;-57
2022/09/04 00:10:02;;;;;;;25.70;11.30;;;;;;;8.45;71.06;101099.57;88990;1264;93618;-59
2022/09/04 00:12:14;;;;;;;19.60;11.70;;;;;;;8.41;71.12;101099.94;88882;1266;79682;-60
2022/09/04 00:14:31;;;;;;;19.50;10.30;;;;;;;8.35;71.24;101100.41;89004;1265;82202;-61
2022/09/04 00:16:46;;;;;;;20.10;10.80;;;;;;;8.30;71.09;101103.80;89019;1265;97217;-60
2022/09/04 00:19:03;;;;;;;18.60;10.90;;;;;;;8.27;71.17;101107.52;88892;1267;88527;-59
2022/09/04 00:21:21;;;;;;;18.70;10.50;;;;;;;8.22;71.31;101107.82;89009;1265;93766;-57
2022/09/04 00:23:41;;;;;;;18.70;10.80;;;;;;;8.20;71.38;101108.92;88976;1265;80793;-61
2022/09/04 00:26:02;;;;;;;16.10;9.30;;;;;;;8.20;71.39;101103.73;88998;1265;82248;-61
2022/09/04 00:28:29;;;;;;;18.50;10.10;;;;;;;8.17;71.59;101101.50;88991;1265;97267;-60
2022/09/04 00:30:49;;;;;;;15.30;9.30;;;;;;;8.13;71.78;101106.96;89029;1265;88996;-60
2022/09/04 00:33:09;;;;;;;15.10;9.20;;;;;;;8.12;71.68;101105.63;88995;1265;95095;-59
2022/09/04 00:35:24;;;;;;;17.40;9.30;;;;;;;8.15;71.80;101104.55;89036;1265;80735;-57
2022/09/04 00:37:41;;;;;;;15.80;9.20;;;;;;;8.19;71.93;101104.56;89003;1265;82513;-57
2022/09/04 00:39:58;;;;;;;16.00;10.00;;;;;;;8.21;71.86;101106.67;89010;1265;97387;-58
2022/09/04 00:42:26;;;;;;;15.80;8.80;;;;;;;8.22;72.01;101111.39;88983;1265;87906;-57
2022/09/04 00:44:57;;;;;;;17.50;9.10;;;;;;;8.22;71.93;101113.77;88975;1265;94389;-57
2022/09/04 00:48:01;;;;;;;18.00;9.70;;;;;;;8.21;71.82;101115.28;88965;1265;79209;-58
2022/09/04 00:50:42;;;;;;;17.70;10.00;;;;;;;8.18;71.91;101114.85;89041;1258;81187;-59
2022/09/04 00:53:18;;;;;;;18.00;10.00;;;;;;;8.12;71.98;101113.36;89009;1265;98278;-60
2022/09/04 00:55:51;;;;;;;15.80;9.30;;;;;;;8.05;72.02;101117.78;88971;1265;87602;-61
2022/09/04 00:58:20;;;;;;;16.60;9.70;;;;;;;8.00;72.28;101124.32;88975;1265;94069;-60
2022/09/04 01:00:30;;;;;;;19.10;10.00;;;;;;;7.95;72.22;101128.41;89002;1265;81605;-61
2022/09/04 01:03:10;;;;;;;18.40;9.50;;;;;;;7.97;72.19;101128.52;88947;1265;82098;-61
2022/09/04 01:05:39;;;;;;;17.00;9.70;;;;;;;7.98;72.11;101129.13;88979;1265;98778;-57
2022/09/04 01:08:06;;;;;;;19.70;9.70;;;;;;;7.93;72.42;101132.16;88988;1265;88163;-58
2022/09/04 01:10:39;;;;;;;18.60;9.20;;;;;;;7.86;72.65;101134.63;89002;1265;92867;-57
2022/09/04 01:12:57;;;;;;;17.80;9.40;;;;;;;7.87;72.60;101135.25;88955;1265;80993;-57
2022/09/04 01:15:16;;;;;;;19.00;9.90;;;;;;;7.90;72.77;101135.68;89003;1265;82227;-60
2022/09/04 01:17:34;;;;;;;17.40;9.50;;;;;;;7.92;72.64;101133.56;88996;1265;97483;-60
2022/09/04 01:20:00;;;;;;;15.70;9.00;;;;;;;7.89;72.64;101135.39;89025;1265;86975;-61
2022/09/04 01:22:54;;;;;;;17.30;9.90;;;;;;;7.84;72.74;101136.34;88953;1265;94584;-61
2022/09/04 01:25:26;;;;;;;19.40;10.50;;;;;;;7.84;72.68;101135.95;88994;1265;81541;-57
2022/09/04 01:27:44;;;;;;;17.90;10.10;;;;;;;7.85;72.70;101137.07;89014;1265;82831;-57
2022/09/04 01:30:05;;;;;;;18.50;9.70;;;;;;;7.81;72.81;101143.58;89025;1265;98844;-58
2022/09/04 01:32:31;;;;;;;16.30;9.60;;;;;;;7.80;72.83;101143.94;88992;1265;87344;-59
2022/09/04 01:34:58;;;;;;;20.00;10.90;;;;;;;7.79;72.76;101145.58;88947;1265;94932;-61
2022/09/04 01:37:29;;;;;;;20.70;10.70;;;;;;;7.74;72.70;101149.34;88912;1261;79830;-61
2022/09/04 01:39:44;;;;;;;18.20;10.50;;;;;;;7.69;72.76;101150.46;88992;1265;81630;-59
2022/09/04 01:42:01;;;;;;;18.70;9.90;;;;;;;7.67;72.90;101150.55;88999;1265;98576;-60
2022/09/04 01:44:12;;;;;;;20.70;10.60;;;;;;;7.57;72.92;101150.53;89020;1265;88029;-60
2022/09/04 01:47:03;;;;;;;19.80;11.10;;;;;;;7.51;73.29;101152.02;88953;1265;95195;-60
2022/09/04 01:49:26;;;;;;;19.80;10.10;;;;;;;7.47;73.23;101152.37;88712;1270;80910;-57
2022/09/04 01:51:43;;;;;;;19.50;10.40;;;;;;;7.48;73.41;101152.62;88668;1270;82714;-58
2022/09/04 01:54:07;;;;;;;18.10;9.80;;;;;;;7.49;73.51;101152.35;88718;1265;97897;-61
2022/09/04 01:56:25;;;;;;;18.70;10.70;;;;;;;7.51;73.59;101150.53;89018;1265;85265;-60
2022/09/04 01:58:47;;;;;;;16.80;9.80;;;;;;;7.51;73.39;101149.98;88970;1265;94456;-60
2022/09/04 02:01:08;;;;;;;17.70;10.10;;;;;;;7.47;73.61;101148.46;88974;1265;80624;-59
2022/09/04 02:03:25;;;;;;;17.60;9.70;;;;;;;7.47;73.67;101148.64;88972;1265;82339;-60
2022/09/04 02:05:52;;;;;;;21.00;10.70;;;;;;;7.50;73.55;101149.20;89052;1259;98927;-61
2022/09/04 02:08:32;;;;;;;17.90;10.70;;;;;;;7.49;73.73;101146.41;89072;1257;88726;-60
2022/09/04 02:10:50;;;;;;;21.90;11.30;;;;;;;7.50;73.61;101146.38;89048;1265;92860;-61
2022/09/04 02:13:15;;;;;;;19.50;11.50;;;;;;;7.50;73.70;101144.40;89007;1265;79388;-61
2022/09/04 02:15:35;;;;;;;23.90;11.90;;;;;;;7.45;73.65;101141.27;89021;1265;81835;-57
2022/09/04 02:18:01;;;;;;;22.90;11.70;;;;;;;7.43;73.71;101141.65;88923;1265;97375;-57
2022/09/04 02:20:28;;;;;;;24.00;11.50;;;;;;;7.35;73.72;101140.65;88991;1265;87570;-59
2022/09/04 02:22:51;;;;;;;24.40;11.30;;;;;;;7.31;73.99;101141.04;88975;1265;93311;-59
2022/09/04 02:25:14;;;;;;;21.50;12.20;;;;;;;7.29;74.01;101145.44;88944;1265;80411;-59
2022/09/04 02:27:32;;;;;;;22.60;11.40;;;;;;;7.25;74.22;101145.05;88972;1265;82078;-59
2022/09/04 02:29:52;;;;;;;29.60;13.30;;;;;;;7.27;74.01;101140.55;89003;1265;97137;-61
2022/09/04 02:32:08;;;;;;;23.80;11.30;;;;;;;7.30;74.02;101141.74;89005;1265;87637;-61
2022/09/04 02:34:29;;;;;;;23.30;11.80;;;;;;;7.30;74.19;101140.62;89016;1265;94769;-60
2022/09/04 02:36:48;;;;;;;25.10;12.00;;;;;;;7.30;74.25;101141.35;89028;1265;80846;-59
2022/09/04 02:39:06;;;;;;;20.20;11.40;;;;;;;7.25;74.13;101139.34;89016;1265;81646;-58
2022/09/04 02:41:26;;;;;;;24.70;11.50;;;;;;;7.20;74.23;101137.84;88976;1265;97398;-57
2022/09/04 02:43:56;;;;;;;20.10;10.70;;;;;;;7.22;74.35;101140.02;89021;1265;88051;-60
2022/09/04 02:46:16;;;;;;;23.40;12.30;;;;;;;7.26;74.42;101139.48;89010;1265;94418;-61
2022/09/04 02:48:39;;;;;;;21.10;10.80;;;;;;;7.24;74.44;101139.94;88980;1265;79460;-58
2022/09/04 02:51:08;;;;;;;23.70;12.10;;;;;;;7.22;74.49;101140.86;88989;1265;80744;-58
2022/09/04 02:53:29;;;;;;;22.70;11.10;;;;;;;7.20;74.52;101142.20;89027;1265;98087;-59
2022/09/04 02:56:10;;;;;;;18.80;11.20;;;;;;;7.15;74.57;101145.46;88999;1265;88412;-59
2022/09/04 02:58:31;;;;;;;19.30;9.40;;;;;;;7.10;74.67;101143.86;89025;1265;93089;-58
2022/09/04 03:00:53;;;;;;;18.10;9.00;;;;;;;7.09;74.77;101142.48;89029;1265;81543;-59
2022/09/04 03:03:11;;;;;;;17.50;9.70;;;;;;;7.10;74.70;101141.48;89004;1265;82806;-58
2022/09/04 03:05:30;;;;;;;15.80;9.50;;;;;;;7.10;74.94;101145.08;88998;1265;97668;-61
2022/09/04 03:07:45;;;;;;;21.20;10.50;;;;;;;7.05;74.95;101149.94;89002;1265;88262;-61
2022/09/04 03:10:05;;;;;;;18.10;9.70;;;;;;;7.02;75.07;101147.33;88962;1265;94011;-60
2022/09/04 03:12:35;;;;;;;19.50;10.40;;;;;;;7.02;75.14;101146.98;88931;1265;81979;-59
2022/09/04 03:14:56;;;;;;;21.00;11.40;;;;;;;7.03;75.12;101149.05;88975;1265;82055;-57
2022/09/04 03:17:25;;;;;;;19.50;10.80;;;;;;;7.01;75.06;101145.15;88980;1265;98017;-58
2022/09/04 03:19:42;;;;;;;19.40;10.50;;;;;;;6.99;75.17;101148.33;88956;1265;87273;-61
2022/09/04 03:21:59;;;;;;;18.90;9.60;;;;;;;6.98;75.27;101150.60;88978;1265;93713;-59
2022/09/04 03:24:15;;;;;;;15.60;9.40;;;;;;;6.97;75.53;101146.95;88956;1265;81748;-60
2022/09/04 03:26:29;;;;;;;14.40;8.10;;;;;;;6.98;75.56;101145.21;88985;1265;82357;-58
2022/09/04 03:28:55;;;;;;;15.10;9.30;;;;;;;7.00;75.55;101147.90;88955;1265;98631;-59
2022/09/04 03:31:23;;;;;;;14.90;8.40;;;;;;;7.00;75.57;101148.73;89039;1265;88058;-59
2022/09/04 03:33:43;;;;;;;13.70;7.80;;;;;;;7.03;75.64;101153.55;88968;1265;94432;-58
2022/09/04 03:36:00;;;;;;;15.30;9.10;;;;;;;7.05;75.78;101152.55;89023;1265;81990;-59
2022/09/04 03:38:22;;;;;;;12.90;7.70;;;;;;;7.09;75.78;101153.66;88906;1267;81563;-59
2022/09/04 03:40:41;;;;;;;14.60;7.90;;;;;;;7.08;75.92;101153.85;88990;1265;99273;-58
2022/09/04 03:43:17;;;;;;;14.30;8.40;;;;;;;7.03;75.97;101158.45;89009;1265;88098;-59
2022/09/04 03:45:38;;;;;;;13.70;7.90;;;;;;;7.03;76.03;101155.80;88941;1267;93348;-57
2022/09/04 03:48:08;;;;;;;14.50;8.10;;;;;;;7.00;75.88;101159.54;88972;1265;80404;-56
2022/09/04 03:50:36;;;;;;;14.90;7.90;;;;;;;6.96;75.87;101161.21;88984;1265;80270;-57
2022/09/04 03:52:57;;;;;;;14.40;7.90;;;;;;;6.92;75.99;101162.33;88945;1265;99197;-56
2022/09/04 03:55:45;;;;;;;13.90;8.30;;;;;;;6.92;76.00;101160.35;88938;1265;88844;-58
2022/09/04 03:58:14;;;;;;;12.50;7.80;;;;;;;6.82;76.05;101163.23;88964;1265;93945;-58
2022/09/04 04:00:25;;;;;;;12.30;7.80;;;;;;;6.79;76.39;101162.84;88956;1265;81889;-59
2022/09/04 04:02:59;;;;;;;10.90;7.80;;;;;;;6.81;76.41;101164.48;88975;1265;79704;-59
2022/09/04 04:05:29;;;;;;;13.50;8.20;;;;;;;6.83;76.33;101164.96;88972;1265;98242;-56
2022/09/04 04:07:53;;;;;;;11.90;9.90;;;;;;;6.90;76.19;101169.45;88953;1265;88293;-57
2022/09/04 04:10:32;;;;;;;14.10;7.90;;;;;;;6.94;76.51;101171.89;88931;1265;95416;-59
2022/09/04 04:13:04;;;;;;;13.80;8.30;;;;;;;7.00;76.31;101169.75;88979;1265;81360;-58
2022/09/04 04:15:32;;;;;;;16.80;8.20;;;;;;;7.04;76.19;101175.62;88964;1265;81396;-59
2022/09/04 04:18:25;;;;;;;17.70;9.10;;;;;;;7.09;76.32;101175.99;88974;1265;97307;-57
2022/09/04 04:20:51;;;;;;;16.60;8.80;;;;;;;7.17;76.22;101179.59;88928;1265;88410;-59
2022/09/04 04:23:28;;;;;;;14.60;9.20;;;;;;;7.14;76.35;101183.35;88973;1265;94463;-59
2022/09/04 04:26:15;;;;;;;14.50;8.80;;;;;;;7.15;76.32;101185.63;88976;1265;80307;-60
2022/09/04 04:28:55;;;;;;;16.00;9.30;;;;;;;7.18;76.48;101181.23;88724;1270;81306;-60
2022/09/04 04:31:17;;;;;;;17.20;9.50;;;;;;;7.29;76.36;101186.82;88674;1273;98043;-61
2022/09/04 04:33:48;;;;;;;14.20;8.90;;;;;;;7.37;76.32;101193.66;88815;1267;87467;-57
2022/09/04 04:36:08;;;;;;;16.90;9.70;;;;;;;7.39;76.32;101197.08;88954;1265;95135;-56
2022/09/04 04:38:34;;;;;;;17.30;9.70;;;;;;;7.56;76.61;101198.21;89059;1265;80726;-58
2022/09/04 04:41:15;;;;;;;20.30;8.60;;;;;;;7.75;76.50;101201.11;89020;1265;82730;-59
2022/09/04 04:43:36;;;;;;;16.70;9.30;;;;;;;7.78;76.54;101198.98;89006;1265;98260;-57
2022/09/04 04:45:57;;;;;;;15.00;8.70;;;;;;;7.84;76.66;101195.82;88993;1265;88090;-56
2022/09/04 04:48:55;;;;;;;13.50;7.90;;;;;;;7.95;76.78;101193.49;88999;1260;94841;-56
2022/09/04 04:51:22;;;;;;;11.70;7.40;;;;;;;8.06;76.80;101201.30;88834;1265;81239;-61
2022/09/04 04:53:42;;;;;;;12.20;7.60;;;;;;;8.11;76.97;101203.53;88967;1265;82347;-60
2022/09/04 04:55:58;;;;;;;12.60;7.70;;;;;;;8.21;77.11;101204.79;88928;1265;98154;-61
2022/09/04 04:58:55;;;;;;;10.70;7.40;;;;;;;8.39;77.02;101208.05;88942;1265;88090;-61
2022/09/04 05:01:18;;;;;;;12.20;6.60;;;;;;;8.57;77.20;101209.55;88979;1265;95258;-59
2022/09/04 05:03:43;;;;;;;12.00;6.90;;;;;;;8.72;77.15;101209.94;88971;1265;80559;-59
2022/09/04 05:06:11;;;;;;;11.80;7.40;;;;;;;8.85;77.14;101208.30;88965;1265;81925;-59
2022/09/04 05:08:33;;;;;;;10.20;7.20;;;;;;;9.07;77.00;101209.83;88971;1265;96762;-59
2022/09/04 05:10:49;;;;;;;10.90;6.80;;;;;;;9.23;77.01;101213.64;88967;1265;87235;-61
2022/09/04 05:13:18;;;;;;;10.50;7.40;;;;;;;9.37;76.91;101210.45;88950;1265;95389;-61
2022/09/04 05:15:34;;;;;;;12.60;9.20;;;;;;;9.53;77.00;101213.89;88965;1265;81913;-59
2022/09/04 05:17:51;;;;;;;15.60;11.40;;;;;;;9.68;76.92;101217.97;88967;1265;81832;-60
2022/09/04 05:20:24;;;;;;;16.60;11.40;;;;;;;9.80;76.87;101216.61;88888;1268;97504;-61
2022/09/04 05:22:40;;;;;;;17.70;11.30;;;;;;;9.97;76.93;101217.16;88986;1265;87868;-61
2022/09/04 05:25:02;;;;;;;19.60;12.50;;;;;;;10.20;77.09;101215.80;89106;1265;95318;-61
2022/09/04 05:27:38;;;;;;;17.90;11.50;;;;;;;11.18;77.63;101212.61;88983;1265;81050;-63
2022/09/04 05:29:57;;;;;;;17.00;12.10;;;;;;;13.49;77.23;101209.67;89002;1265;80674;-55
2022/09/04 05:32:18;;;;;;;16.20;11.00;;;;;;;15.60;74.84;101208.74;88933;1265;98370;-55
2022/09/04 05:34:55;;;;;;;18.10;11.60;;;;;;;17.49;72.35;101203.16;88997;1265;87242;-61
2022/09/04 05:37:15;;;;;;;13.70;10.80;;;;;;;19.16;69.51;101200.73;88992;1265;93600;-61
2022/09/04 05:39:33;;;;;;;15.70;10.90;;;;;;;20.44;67.37;101201.38;88933;1268;80309;-60
2022/09/04 05:41:55;;;;;;;14.70;9.90;;;;;;;21.45;65.16;101204.13;88968;1265;82080;-60
2022/09/04 05:44:26;;;;;;;13.70;9.40;;;;;;;22.35;62.70;101208.88;88957;1265;97956;-56
2022/09/04 05:46:53;;;;;;;11.40;9.30;;;;;;;23.40;60.39;101207.14;88989;1265;87424;-57
2022/09/04 05:49:16;;;;;;;15.20;10.20;;;;;;;24.03;58.15;101208.25;88983;1265;93671;-56
2022/09/04 05:51:52;;;;;;;13.90;10.40;;;;;;;24.00;56.16;101209.94;88984;1265;79970;-56
2022/09/04 05:54:37;;;;;;;10.70;8.50;;;;;;;23.50;54.81;101210.15;88984;1265;82589;-57
2022/09/04 05:57:21;;;;;;;12.40;9.80;;;;;;;24.14;53.80;101210.49;88943;1265;97648;-57
2022/09/04 05:59:56;;;;;;;11.40;8.70;;;;;;;25.14;52.78;101212.40;88987;1265;87908;-56
2022/09/04 06:02:53;;;;;;;10.80;8.50;;;;;;;25.76;52.27;101209.48;88935;1265;94563;-57
2022/09/04 06:05:43;;;;;;;9.50;8.10;;;;;;;26.87;50.56;101212.55;88853;1265;79568;-60
2022/09/04 06:08:09;;;;;;;9.00;7.90;;;;;;;27.72;48.89;101213.93;88977;1265;82693;-60
2022/09/04 06:10:29;;;;;;;8.40;7.40;;;;;;;28.35;47.37;101211.88;88971;1265;98407;-62
2022/09/04 06:13:13;;;;;;;7.70;6.90;;;;;;;28.83;46.55;101213.84;89018;1265;87023;-62
2022/09/04 06:15:46;;;;;;;8.60;6.60;;;;;;;28.96;45.59;101219.08;88608;1265;93782;-58
2022/09/04 06:18:35;;;;;;;10.10;7.40;;;;;;;29.30;44.71;101216.79;88950;1266;79787;-58
2022/09/04 06:21:19;;;;;;;10.20;6.30;;;;;;;29.82;43.25;101213.75;88972;1265;80730;-57
2022/09/04 06:23:51;;;;;;;;;;;;;;;28.99;42.51;101218.30;89009;1265;98375;-59
2022/09/04 06:26:17;;;;;;;6.70;6.00;;;;;;;27.50;42.80;101222.58;88990;1265;87813;-59
2022/09/04 06:28:53;;;;;;;7.20;6.10;;;;;;;26.08;42.83;101228.39;88944;1265;94592;-58
2022/09/04 06:31:26;;;;;;;8.80;6.50;;;;;;;24.85;43.68;101233.23;88964;1265;79810;-59
2022/09/04 06:33:56;;;;;;;9.90;6.70;;;;;;;24.30;43.88;101230.17;88980;1265;81023;-61
2022/09/04 06:36:51;;;;;;;7.20;5.90;;;;;;;23.85;44.34;101233.48;88972;1265;97706;-62
2022/09/04 06:39:47;;;;;;;6.70;5.50;;;;;;;23.74;44.57;101235.10;89017;1265;87812;-59
2022/09/04 06:42:24;;;;;;;8.40;5.50;;;;;;;23.35;44.99;101239.83;88975;1265;93902;-61
2022/09/04 06:44:51;;;;;;;6.70;6.00;;;;;;;22.81;45.89;101245.09;89006;1265;80574;-57
2022/09/04 06:47:19;;;;;;;6.80;5.70;;;;;;;22.46;46.67;101248.62;88965;1265;81957;-57
2022/09/04 06:49:40;;;;;;;6.90;5.30;;;;;;;21.99;47.15;101244.60;88996;1265;96318;-57
2022/09/04 06:52:07;;;;;;;7.40;5.50;;;;;;;21.66;47.55;101240.79;88988;1265;88524;-57
2022/09/04 06:54:33;;;;;;;7.00;5.50;;;;;;;21.46;48.21;101244.46;88952;1265;94871;-62
2022/09/04 06:57:07;;;;;;;7.10;5.10;;;;;;;21.17;48.45;101246.27;88985;1265;79862;-60
2022/09/04 07:00:06;;;;;;;7.30;5.70;;;;;;;21.20;49.15;101241.38;88973;1265;83048;-57
2022/09/04 07:02:32;;;;;;;7.80;5.10;;;;;;;22.08;48.99;101245.65;88898;1265;97086;-57
2022/09/04 07:05:08;;;;;;;7.20;5.00;;;;;;;23.07;48.14;101247.58;88963;1267;87356;-62
2022/09/04 07:07:31;;;;;;;8.00;4.90;;;;;;;24.04;47.12;101244.39;89017;1265;94917;-62
2022/09/04 07:09:50;;;;;;;6.70;5.30;;;;;;;24.12;46.41;101245.93;89019;1265;79171;-57
2022/09/04 07:15:57;;;;;;;6.80;5.70;;;;;;;24.26;46.36;101246.20;87123;1295;599937;-60
2022/09/04 07:18:21;;;;;;;7.00;4.90;;;;;;;23.91;46.42;101249.39;88428;1273;79301;-60
2022/09/04 07:20:37;;;;;;;6.50;5.20;;;;;;;24.54;46.06;101251.02;88620;1272;82126;-60
2022/09/04 07:23:29;;;;;;;5.90;5.20;;;;;;;25.34;45.23;101250.39;88830;1270;94656;-60
2022/09/04 07:25:51;;;;;;;7.00;4.80;;;;;;;25.10;44.86;101248.38;88563;1270;88969;-61
2022/09/04 07:28:32;;;;;;;6.50;5.00;;;;;;;24.85;45.07;101255.34;88401;1269;528161;-61
2022/09/04 07:30:51;;;;;;;6.80;5.80;;;;;;;24.63;44.78;101257.55;88998;1267;80021;-59
2022/09/04 07:33:08;;;;;;;6.40;5.50;;;;;;;24.30;44.86;101254.70;89053;1266;81690;-59
2022/09/04 07:35:27;;;;;;;6.90;5.50;;;;;;;24.46;44.75;101255.16;88970;1266;97034;-57
2022/09/04 07:37:45;;;;;;;8.20;5.60;;;;;;;24.58;44.73;101254.52;88993;1266;88626;-58
2022/09/04 07:40:08;;;;;;;6.80;4.90;;;;;;;24.93;44.64;101254.27;89038;1266;94076;-62
2022/09/04 07:42:26;;;;;;;6.40;4.20;;;;;;;25.32;44.15;101252.91;88973;1267;80525;-62
2022/09/04 07:44:53;;;;;;;4.10;3.70;;;;;;;25.83;43.35;101253.30;89074;1267;81971;-60
2022/09/04 07:47:13;;;;;;;4.90;4.10;;;;;;;26.83;42.53;101258.36;89008;1267;97067;-60
2022/09/04 07:49:35;;;;;;;4.70;3.70;;;;;;;27.74;42.17;101254.41;88982;1267;88201;-60
2022/09/04 07:51:54;;;;;;;5.20;3.80;;;;;;;28.67;40.32;101258.11;89024;1266;93933;-61
2022/09/04 07:54:38;;;;;;;4.50;3.20;;;;;;;29.62;38.89;101253.14;89021;1266;79493;-58
2022/09/04 07:57:12;;;;;;;4.90;3.20;;;;;;;30.57;38.64;101252.58;89002;1266;81504;-57
2022/09/04 07:59:56;;;;;;;3.80;3.40;;;;;;;31.21;37.45;101257.64;89015;1266;96246;-61
2022/09/04 08:02:27;;;;;;;4.70;3.50;;;;;;;31.84;36.20;101257.55;89060;1266;87467;-62
2022/09/04 08:08:48;;;;;;;4.40;3.10;;;;;;;32.08;33.94;101261.66;86361;1302;600283;-60
2022/09/04 08:11:27;;;;;;;4.10;3.20;;;;;;;32.04;33.90;101261.05;88633;1272;79429;-60
2022/09/04 08:14:03;;;;;;;3.90;3.50;;;;;;;31.76;33.16;101261.02;88645;1272;81996;-60
2022/09/04 08:16:27;;;;;;;2.90;2.60;;;;;;;31.93;33.85;101262.23;88651;1272;96622;-62
2022/09/04 08:18:57;;;;;;;5.20;3.40;;;;;;;31.97;32.87;101263.23;88632;1272;87469;-58
2022/09/04 08:21:27;;;;;;;3.90;3.20;;;;;;;31.71;33.54;101262.07;88146;1270;578939;-59
2022/09/04 08:24:13;;;;;;;4.20;3.30;;;;;;;32.06;33.11;101264.36;88783;1269;80438;-61
2022/09/04 08:26:36;;;;;;;3.60;3.10;;;;;;;32.34;32.72;101257.79;88559;1269;81932;-62
2022/09/04 08:29:07;;;;;;;6.70;3.90;;;;;;;32.70;32.68;101264.09;88791;1269;96202;-60
2022/09/04 08:31:29;;;;;;;5.40;4.00;;;;;;;33.07;32.15;101263.16;88819;1269;87987;-62
2022/09/04 08:34:34;;;;;;;4.90;3.50;;;;;;;33.21;31.43;101265.53;88820;1269;93719;-59
2022/09/04 08:36:55;;;;;;;4.70;3.80;;;;;;;32.82;30.90;101266.56;88755;1269;78869;-60
2022/09/04 08:39:12;;;;;;;3.80;3.40;;;;;;;32.41;30.70;101269.04;89431;1260;81907;-62
2022/09/04 08:42:13;;;;;;;4.10;3.40;;;;;;;32.37;30.67;101272.61;89423;1260;97417;-62
2022/09/04 08:45:23;;;;;;;3.90;3.50;;;;;;;32.15;30.97;101272.14;89435;1260;87137;-60
2022/09/04 08:48:00;;;;;;;4.20;3.80;;;;;;;32.61;30.93;101268.68;89447;1260;92773;-60
2022/09/04 08:50:42;;;;;;;4.10;3.40;;;;;;;32.53;30.83;101265.36;89403;1260;79261;-60
2022/09/04 08:53:45;;;;;;;5.20;3.40;;;;;;;32.44;29.70;101265.33;89434;1261;81456;-61
2022/09/04 08:56:36;;;;;;;4.00;3.60;;;;;;;32.63;29.39;101266.48;89374;1260;95736;-60
2022/09/04 08:59:33;;;;;;;3.60;3.20;;;;;;;32.14;28.40;101265.35;89455;1260;88345;-59
2022/09/04 09:02:46;;;;;;;3.70;3.30;;;;;;;31.84;29.17;101264.92;89438;1253;94303;-60
2022/09/04 09:05:48;;;;;;;4.90;4.30;;;;;;;31.86;29.16;101273.50;89316;1260;80030;-60
2022/09/04 09:09:22;;;;;;;4.50;3.50;;;;;;;31.74;29.21;101272.11;89220;1260;82125;-62
2022/09/04 09:16:06;;;;;;;4.40;3.60;;;;;;;30.65;29.77;101265.46;89382;1260;87065;-59
2022/09/04 09:19:12;;;;;;;4.80;4.10;;;;;;;30.87;29.98;101269.13;89097;1262;95551;-59
2022/09/04 09:28:57;;;;;;;4.20;3.50;;;;;;;30.92;30.21;101267.00;88462;1273;78673;-59
2022/09/04 09:32:15;;;;;;;4.70;3.90;;;;;;;30.31;30.37;101267.05;88877;1269;81359;-62
2022/09/04 09:35:52;;;;;;;6.10;4.20;;;;;;;29.53;29.82;101259.25;88753;1270;95492;-60
2022/09/04 09:38:53;;;;;;;7.00;4.40;;;;;;;29.25;30.13;101260.08;83318;1267;7379589;-61
2022/09/04 09:42:07;;;;;;;4.50;4.00;;;;;;;28.19;29.72;101266.27;88945;1268;79349;-56
2022/09/04 09:45:43;;;;;;;4.50;3.80;;;;;;;27.05;31.08;101267.26;88958;1267;82499;-61
2022/09/04 09:49:21;;;;;;;5.30;4.50;;;;;;;26.94;32.44;101265.59;88688;1267;96045;-58
2022/09/04 09:52:27;;;;;;;6.70;4.60;;;;;;;26.52;32.13;101268.88;89021;1264;86398;-56
2022/09/04 09:55:35;;;;;;;6.20;4.50;;;;;;;26.18;32.07;101271.55;89207;1262;93219;-59
2022/09/04 09:58:43;;;;;;;6.80;4.60;;;;;;;25.72;32.44;101263.05;89239;1263;77464;-56
2022/09/04 10:01:26;;;;;;;7.60;4.70;;;;;;;25.51;32.96;101266.45;88858;1268;80929;-60
2022/09/04 10:04:30;;;;;;;7.00;4.90;;;;;;;25.52;33.13;101264.25;89229;1262;97360;-61
2022/09/04 10:08:00;;;;;;;7.40;5.30;;;;;;;25.05;33.34;101269.08;88968;1265;88748;-60
2022/09/04 10:11:22;;;;;;;6.00;4.90;;;;;;;25.21;33.84;101266.52;89148;1264;94581;-59
2022/09/04 10:14:43;;;;;;;8.10;5.10;;;;;;;25.07;33.99;101263.96;89247;1262;79355;-60
2022/09/04 10:20:14;;;;;;;6.00;4.70;;;;;;;25.09;33.73;101254.47;87024;1294;601008;-61
2022/09/04 10:23:45;;;;;;;7.50;5.80;;;;;;;24.87;33.90;101261.52;88576;1265;77754;-60
2022/09/04 10:27:17;;;;;;;8.00;5.20;;;;;;;24.84;33.91;101258.94;88595;1273;80561;-60
2022/09/04 10:30:23;;;;;;;7.30;5.10;;;;;;;24.74;34.22;101255.16;89009;1266;95790;-60
2022/09/04 10:33:31;;;;;;;7.00;4.90;;;;;;;24.98;34.01;101248.00;87598;1266;1949681;-61
2022/09/04 10:36:05;;;;;;;6.40;5.20;;;;;;;25.12;34.08;101251.00;89126;1263;93415;-59
2022/09/04 10:42:13;;;;;;;5.90;5.10;;;;;;;25.05;33.62;101261.78;89003;1266;83064;-62
2022/09/04 10:45:04;;;;;;;6.80;5.50;;;;;;;25.13;33.65;101254.59;89147;1263;96882;-62
2022/09/04 10:51:26;;;;;;;8.70;5.40;;;;;;;25.34;32.87;101260.79;73587;1270;936817;-64
2022/09/04 10:54:13;;;;;;;7.00;5.20;;;;;;;25.29;31.68;101257.20;87965;1285;81804;-64
2022/09/04 10:56:45;;;;;;;7.10;5.50;;;;;;;25.30;31.22;101261.54;88086;1285;80709;-62
2022/09/04 11:06:02;;;;;;;9.50;5.10;;;;;;;25.09;32.35;101257.12;86912;1296;600531;-58
2022/09/04 11:09:21;;;;;;;6.40;5.10;;;;;;;25.32;32.07;101254.67;89042;1266;79129;-65
2022/09/04 11:13:01;;;;;;;6.90;4.50;;;;;;;25.39;31.66;101254.73;88989;1267;80795;-61
2022/09/04 11:20:11;;;;;;;7.10;5.60;;;;;;;25.36;31.76;101248.14;83533;1266;7336624;-58
2022/09/04 11:23:27;;;;;;;7.20;4.60;;;;;;;24.92;32.86;101252.55;88808;1269;78973;-60
2022/09/04 11:26:32;;;;;;;5.90;5.00;;;;;;;24.61;33.92;101249.23;88929;1266;81571;-62
2022/09/04 11:29:25;;;;;;;7.10;4.50;;;;;;;24.31;34.45;101247.87;89119;1263;95058;-57
2022/09/04 11:32:08;;;;;;;5.10;4.30;;;;;;;23.98;35.08;101250.16;89502;1260;86205;-61
2022/09/04 11:35:22;;;;;;;6.30;4.80;;;;;;;23.62;35.47;101250.66;89217;1263;94525;-61
2022/09/04 11:38:11;;;;;;;8.50;5.80;;;;;;;23.53;35.77;101253.67;89004;1269;78002;-61
2022/09/04 11:41:31;;;;;;;9.30;5.40;;;;;;;23.36;35.86;101263.98;89228;1263;81951;-59
2022/09/04 11:44:32;;;;;;;5.20;4.70;;;;;;;23.06;36.77;101261.31;89256;1262;96643;-59
2022/09/04 11:47:36;;;;;;;6.30;4.90;;;;;;;22.98;36.83;101256.25;88915;1269;86718;-58
2022/09/04 11:50:25;;;;;;;6.90;4.70;;;;;;;22.91;37.29;101253.88;89129;1262;92635;-59
2022/09/04 11:53:26;;;;;;;6.70;5.20;;;;;;;22.89;37.59;101255.00;89470;1260;79210;-60
2022/09/04 11:56:37;;;;;;;6.80;4.80;;;;;;;22.84;37.92;101255.63;89302;1261;81585;-61
2022/09/04 12:00:01;;;;;;;8.60;5.70;;;;;;;22.60;38.24;101250.45;89215;1261;95643;-60
2022/09/04 12:03:08;;;;;;;10.80;7.30;;;;;;;22.53;38.07;101250.70;89109;1263;87815;-59
2022/09/04 12:05:51;;;;;;;12.40;7.30;;;;;;;22.39;37.96;101250.14;89333;1261;94618;-65
2022/09/04 12:09:11;;;;;;;10.50;6.10;;;;;;;22.27;37.91;101251.34;88993;1264;80007;-62
2022/09/04 12:12:27;;;;;;;13.80;8.60;;;;;;;22.37;37.83;101250.94;89480;1260;80209;-61
2022/09/04 12:15:26;;;;;;;13.70;8.60;;;;;;;22.41;37.93;101246.29;89475;1261;97828;-60
2022/09/04 12:18:46;;;;;;;10.50;7.10;;;;;;;22.42;37.71;101239.02;89129;1263;86830;-58
2022/09/04 12:25:21;;;;;;;8.30;4.60;;;;;;;22.67;37.07;101241.72;89108;1263;79175;-62
2022/09/04 12:28:22;;;;;;;6.90;4.70;;;;;;;22.76;37.35;101244.09;89134;1263;81557;-61
2022/09/04 12:31:14;;;;;;;7.30;4.50;;;;;;;22.74;37.45;101244.09;89061;1263;97006;-62
2022/09/04 12:34:10;;;;;;;4.20;3.80;;;;;;;22.67;36.81;101243.92;89216;1264;88148;-61
2022/09/04 12:37:42;;;;;;;6.40;4.40;;;;;;;22.71;37.41;101246.91;89126;1263;95263;-61
2022/09/04 12:41:27;;;;;;;8.60;4.50;;;;;;;22.73;37.54;101241.06;89400;1263;78392;-59
2022/09/04 12:44:40;;;;;;;6.90;4.20;;;;;;;22.77;37.58;101236.05;89386;1263;80907;-61
2022/09/04 12:47:35;;;;;;;7.30;4.50;;;;;;;22.87;37.31;101234.40;89129;1263;97844;-61